Time;durP1;ratioP1;P1;durP2;ratioP2;P2;SDS_P1;SDS_P2;PMS_P1;PMS_P2;Temp;Humidity;BMP_temperature;BMP_pressure;BME280_temperature;BME280_humidity;BME280_pressure;Samples;Min_cycle;Max_cycle;Signal;HPM_P1;HPM_P2
2023/07/14 00:01:52;;;;;;;13.88;6.53;;;;;;;;;;5073235;28;20200;-41
2023/07/14 00:04:36;;;;;;;7.82;5.35;;;;;;;;;;5073353;28;20215;-41
2023/07/14 00:07:12;;;;;;;13.55;5.60;;;;;;;;;;5072338;28;20207;-41
2023/07/14 00:09:42;;;;;;;17.73;6.43;;;;;;;;;;5072359;28;20195;-41
2023/07/14 00:12:09;;;;;;;15.07;4.95;;;;;;;;;;5073135;28;20199;-40
2023/07/14 00:14:36;;;;;;;23.05;5.93;;;;;;;;;;5073148;28;20222;-40
2023/07/14 00:17:05;;;;;;;19.35;6.40;;;;;;;;;;5073278;28;20199;-40
2023/07/14 00:19:32;;;;;;;21.52;6.82;;;;;;;;;;5073182;28;20203;-41
2023/07/14 00:21:59;;;;;;;11.90;5.70;;;;;;;;;;5073016;28;20617;-40
2023/07/14 00:24:27;;;;;;;17.80;5.95;;;;;;;;;;5072972;28;20207;-41
2023/07/14 00:26:58;;;;;;;16.08;6.18;;;;;;;;;;5073270;28;20203;-40
2023/07/14 00:29:26;;;;;;;18.20;5.28;;;;;;;;;;5073180;28;20214;-41
2023/07/14 00:31:53;;;;;;;12.90;5.90;;;;;;;;;;5073612;28;20231;-40
2023/07/14 00:34:21;;;;;;;9.52;5.80;;;;;;;;;;5076797;28;20756;-40
2023/07/14 00:36:48;;;;;;;25.27;5.88;;;;;;;;;;5075485;28;20199;-40
2023/07/14 00:39:15;;;;;;;16.30;6.18;;;;;;;;;;5075627;28;20596;-40
2023/07/14 00:41:43;;;;;;;10.95;5.68;;;;;;;;;;5076935;28;20199;-40
2023/07/14 00:44:13;;;;;;;15.27;5.53;;;;;;;;;;5075426;28;20211;-42
2023/07/14 00:46:41;;;;;;;14.68;6.47;;;;;;;;;;5076893;28;20233;-41
2023/07/14 00:49:33;;;;;;;13.25;6.65;;;;;;;;;;5075424;28;20226;-41
2023/07/14 00:52:10;;;;;;;13.60;5.95;;;;;;;;;;5075564;28;20227;-41
2023/07/14 00:54:38;;;;;;;12.82;6.30;;;;;;;;;;5075172;28;20679;-40
2023/07/14 00:57:15;;;;;;;14.43;6.43;;;;;;;;;;5075459;28;20200;-40
2023/07/14 00:59:42;;;;;;;11.27;6.20;;;;;;;;;;5076578;28;20234;-40
2023/07/14 01:02:23;;;;;;;12.43;6.22;;;;;;;;;;5076253;28;20207;-40
2023/07/14 01:04:57;;;;;;;18.42;6.78;;;;;;;;;;5076485;28;20218;-40
2023/07/14 01:07:29;;;;;;;12.85;5.90;;;;;;;;;;5076681;28;20204;-40
2023/07/14 01:09:57;;;;;;;11.73;5.68;;;;;;;;;;5075065;28;20207;-41
2023/07/14 01:12:26;;;;;;;17.65;6.68;;;;;;;;;;5074850;28;20207;-40
2023/07/14 01:14:54;;;;;;;10.20;6.35;;;;;;;;;;5075998;28;20238;-40
2023/07/14 01:17:22;;;;;;;14.65;5.93;;;;;;;;;;5076268;28;20199;-41
2023/07/14 01:19:53;;;;;;;12.18;6.50;;;;;;;;;;5076222;28;20210;-41
2023/07/14 01:22:33;;;;;;;10.52;6.10;;;;;;;;;;5074775;28;20222;-41
2023/07/14 01:25:16;;;;;;;13.13;6.13;;;;;;;;;;5058236;28;20686;-41
2023/07/14 01:27:46;;;;;;;22.50;6.35;;;;;;;;;;5075062;28;20199;-40
2023/07/14 01:30:14;;;;;;;16.73;5.88;;;;;;;;;;5075813;28;20659;-40
2023/07/14 01:32:46;;;;;;;19.75;5.78;;;;;;;;;;5074488;28;20261;-40
2023/07/14 01:35:15;;;;;;;18.98;5.82;;;;;;;;;;5075653;28;20202;-41
2023/07/14 01:37:42;;;;;;;12.77;5.95;;;;;;;;;;5075747;28;20286;-40
2023/07/14 01:40:13;;;;;;;15.20;6.10;;;;;;;;;;5075783;28;20204;-40
2023/07/14 01:42:42;;;;;;;11.02;6.07;;;;;;;;;;5074281;28;20199;-40
2023/07/14 01:45:14;;;;;;;13.15;5.95;;;;;;;;;;5074241;28;20674;-40
2023/07/14 01:47:44;;;;;;;11.57;5.47;;;;;;;;;;5074211;28;20199;-41
2023/07/14 01:50:19;;;;;;;13.88;6.20;;;;;;;;;;5075584;28;20199;-40
2023/07/14 01:52:47;;;;;;;22.58;5.75;;;;;;;;;;5054345;28;20200;-41
2023/07/14 01:55:19;;;;;;;12.43;6.00;;;;;;;;;;5037767;28;20204;-41
2023/07/14 01:57:47;;;;;;;17.33;5.97;;;;;;;;;;5064612;28;20698;-43
2023/07/14 02:00:16;;;;;;;12.85;6.55;;;;;;;;;;5073746;28;20242;-40
2023/07/14 02:02:44;;;;;;;18.50;6.32;;;;;;;;;;5074740;28;20210;-40
2023/07/14 02:05:20;;;;;;;10.90;5.88;;;;;;;;;;5074788;28;20586;-41
2023/07/14 02:07:47;;;;;;;13.40;5.65;;;;;;;;;;5074704;28;20197;-41
2023/07/14 02:10:16;;;;;;;17.02;5.75;;;;;;;;;;5073528;28;20207;-41
2023/07/14 02:12:46;;;;;;;13.23;5.50;;;;;;;;;;5075108;28;20223;-41
2023/07/14 02:15:28;;;;;;;11.35;5.97;;;;;;;;;;5073423;28;20238;-41
2023/07/14 02:17:55;;;;;;;14.75;6.80;;;;;;;;;;5073414;28;20199;-41
2023/07/14 02:20:27;;;;;;;19.23;6.28;;;;;;;;;;5073437;28;20226;-41
2023/07/14 02:22:55;;;;;;;16.25;6.60;;;;;;;;;;5073322;28;20656;-41
2023/07/14 02:25:26;;;;;;;13.95;6.07;;;;;;;;;;5074622;28;20207;-41
2023/07/14 02:27:53;;;;;;;17.13;6.80;;;;;;;;;;5074376;28;20196;-41
2023/07/14 02:30:22;;;;;;;11.13;6.95;;;;;;;;;;5073173;28;20607;-41
2023/07/14 02:32:53;;;;;;;21.15;7.22;;;;;;;;;;5074597;28;20290;-43
2023/07/14 02:35:30;;;;;;;15.38;6.93;;;;;;;;;;5074241;28;20227;-42
2023/07/14 02:38:03;;;;;;;16.52;6.35;;;;;;;;;;5072996;28;20257;-41
2023/07/14 02:40:39;;;;;;;11.52;7.10;;;;;;;;;;5073093;28;20325;-41
2023/07/14 02:43:16;;;;;;;14.30;7.07;;;;;;;;;;5056678;28;20282;-41
2023/07/14 02:45:53;;;;;;;9.52;6.43;;;;;;;;;;5072994;28;20210;-41
2023/07/14 02:48:38;;;;;;;17.55;7.28;;;;;;;;;;5074015;28;20552;-40
2023/07/14 02:51:06;;;;;;;11.35;6.57;;;;;;;;;;5073898;28;20210;-41
2023/07/14 02:53:33;;;;;;;22.13;7.88;;;;;;;;;;5072449;28;20219;-41
2023/07/14 02:56:02;;;;;;;21.92;7.10;;;;;;;;;;5072420;28;20204;-41
2023/07/14 02:58:30;;;;;;;13.68;6.57;;;;;;;;;;5072666;28;20195;-41
2023/07/14 03:00:57;;;;;;;15.30;7.15;;;;;;;;;;5074283;28;20184;-41
2023/07/14 03:03:25;;;;;;;17.13;7.20;;;;;;;;;;5073945;28;20572;-41
2023/07/14 03:05:53;;;;;;;13.35;6.93;;;;;;;;;;5072606;28;20207;-41
2023/07/14 03:08:20;;;;;;;16.27;6.93;;;;;;;;;;5072886;28;20206;-41
2023/07/14 03:10:49;;;;;;;11.10;6.43;;;;;;;;;;5073924;28;20226;-41
2023/07/14 03:13:16;;;;;;;15.23;6.72;;;;;;;;;;5072391;28;20235;-40
2023/07/14 03:15:44;;;;;;;14.13;6.50;;;;;;;;;;5073818;28;20196;-41
2023/07/14 03:18:11;;;;;;;13.45;6.38;;;;;;;;;;5072718;28;20207;-40
2023/07/14 03:20:39;;;;;;;12.80;6.55;;;;;;;;;;5072769;28;20208;-40
2023/07/14 03:23:06;;;;;;;15.98;7.13;;;;;;;;;;5072615;28;20252;-41
2023/07/14 03:25:33;;;;;;;11.18;6.63;;;;;;;;;;5073515;28;20212;-41
2023/07/14 03:28:01;;;;;;;9.50;6.45;;;;;;;;;;5073526;28;20199;-39
2023/07/14 03:30:31;;;;;;;10.10;6.40;;;;;;;;;;5071040;28;20200;-40
2023/07/14 03:32:58;;;;;;;13.32;7.05;;;;;;;;;;5061696;28;20282;-42
2023/07/14 03:35:25;;;;;;;14.52;6.50;;;;;;;;;;5063021;28;20230;-41
2023/07/14 03:37:52;;;;;;;10.18;7.18;;;;;;;;;;5063763;28;20207;-40
2023/07/14 03:40:19;;;;;;;10.90;6.20;;;;;;;;;;5052148;28;20204;-40
2023/07/14 03:42:46;;;;;;;11.95;6.95;;;;;;;;;;5065439;28;20231;-40
2023/07/14 03:45:14;;;;;;;12.43;7.55;;;;;;;;;;5059294;28;20218;-41
2023/07/14 03:47:41;;;;;;;12.73;7.47;;;;;;;;;;5062008;28;20203;-40
2023/07/14 03:50:11;;;;;;;11.10;7.22;;;;;;;;;;5065829;28;20233;-42
2023/07/14 03:52:38;;;;;;;16.40;7.68;;;;;;;;;;5071603;28;20203;-42
2023/07/14 03:55:06;;;;;;;20.42;8.02;;;;;;;;;;5072274;28;20234;-41
2023/07/14 03:57:35;;;;;;;16.58;7.82;;;;;;;;;;5063861;28;20282;-41
2023/07/14 04:00:17;;;;;;;15.90;8.20;;;;;;;;;;5062058;28;20243;-41
2023/07/14 04:02:50;;;;;;;12.65;7.60;;;;;;;;;;5052010;28;20666;-40
2023/07/14 04:05:17;;;;;;;11.65;7.85;;;;;;;;;;5085949;28;20207;-41
2023/07/14 04:07:44;;;;;;;16.27;8.85;;;;;;;;;;5057545;28;20253;-41
2023/07/14 04:10:12;;;;;;;18.40;8.80;;;;;;;;;;5057129;28;20254;-40
2023/07/14 04:12:39;;;;;;;16.70;8.60;;;;;;;;;;5057181;28;20290;-41
2023/07/14 04:15:06;;;;;;;16.30;9.05;;;;;;;;;;5071263;28;20711;-41
2023/07/14 04:17:36;;;;;;;15.23;8.88;;;;;;;;;;5066267;28;20793;-40
2023/07/14 04:20:05;;;;;;;14.57;9.60;;;;;;;;;;5073647;28;20725;-40
2023/07/14 04:22:33;;;;;;;18.88;10.73;;;;;;;;;;5076121;28;20250;-41
2023/07/14 04:25:00;;;;;;;20.75;9.70;;;;;;;;;;5076132;28;20331;-40
2023/07/14 04:27:29;;;;;;;19.83;9.90;;;;;;;;;;5069404;28;20226;-40
2023/07/14 04:29:56;;;;;;;16.95;9.52;;;;;;;;;;5070880;28;20241;-40
2023/07/14 04:32:24;;;;;;;16.27;9.65;;;;;;;;;;5076421;28;20230;-40
2023/07/14 04:34:51;;;;;;;19.83;9.43;;;;;;;;;;5075717;28;20238;-41
2023/07/14 04:37:19;;;;;;;12.38;8.90;;;;;;;;;;5076446;28;20306;-41
2023/07/14 04:39:46;;;;;;;17.08;9.82;;;;;;;;;;5075978;28;20234;-40
2023/07/14 04:42:13;;;;;;;16.90;10.15;;;;;;;;;;5070001;28;20220;-41
2023/07/14 04:44:40;;;;;;;15.30;9.57;;;;;;;;;;5055606;28;20254;-40
2023/07/14 04:47:08;;;;;;;17.20;10.18;;;;;;;;;;5056287;28;20285;-40
2023/07/14 04:49:35;;;;;;;17.83;9.63;;;;;;;;;;5055911;28;20223;-40
2023/07/14 04:52:03;;;;;;;17.65;9.38;;;;;;;;;;5055834;28;20224;-40
2023/07/14 04:54:30;;;;;;;15.45;9.68;;;;;;;;;;5055514;28;20228;-41
2023/07/14 04:56:57;;;;;;;18.75;11.38;;;;;;;;;;5055707;28;20227;-41
2023/07/14 04:59:24;;;;;;;19.73;10.75;;;;;;;;;;5063372;28;20263;-43
2023/07/14 05:01:52;;;;;;;16.08;10.48;;;;;;;;;;5075644;28;20603;-40
2023/07/14 05:04:19;;;;;;;16.33;10.00;;;;;;;;;;5075664;28;20313;-41
2023/07/14 05:06:46;;;;;;;20.05;11.20;;;;;;;;;;5075663;28;20234;-40
2023/07/14 05:09:13;;;;;;;18.73;10.77;;;;;;;;;;5075614;28;20235;-40
2023/07/14 05:11:41;;;;;;;22.85;13.25;;;;;;;;;;5075146;28;20226;-40
2023/07/14 05:14:08;;;;;;;19.60;11.52;;;;;;;;;;5074993;28;20624;-40
2023/07/14 05:16:35;;;;;;;17.23;10.95;;;;;;;;;;5073988;28;20270;-40
2023/07/14 05:19:03;;;;;;;19.00;12.00;;;;;;;;;;5070887;28;20554;-40
2023/07/14 05:21:30;;;;;;;18.38;11.35;;;;;;;;;;5076022;28;20256;-41
2023/07/14 05:23:57;;;;;;;18.23;11.00;;;;;;;;;;5075521;28;20664;-41
2023/07/14 05:26:24;;;;;;;18.15;12.02;;;;;;;;;;5075783;28;20199;-40
2023/07/14 05:28:51;;;;;;;22.63;11.32;;;;;;;;;;5075738;28;20297;-40
2023/07/14 05:31:18;;;;;;;20.90;12.50;;;;;;;;;;5076122;28;20203;-41
2023/07/14 05:33:45;;;;;;;19.92;12.55;;;;;;;;;;5075706;28;20210;-39
2023/07/14 05:36:13;;;;;;;19.20;11.00;;;;;;;;;;5075809;28;20235;-40
2023/07/14 05:38:40;;;;;;;17.40;11.73;;;;;;;;;;5075910;28;20203;-42
2023/07/14 05:41:08;;;;;;;19.25;11.95;;;;;;;;;;5090532;28;20619;-42
2023/07/14 05:43:35;;;;;;;15.63;11.50;;;;;;;;;;5075446;28;20200;-42
2023/07/14 05:46:03;;;;;;;17.30;11.73;;;;;;;;;;5075496;28;20210;-41
2023/07/14 05:48:30;;;;;;;17.52;12.07;;;;;;;;;;5075151;28;20192;-42
2023/07/14 05:50:58;;;;;;;18.27;11.60;;;;;;;;;;5074816;28;20278;-42
2023/07/14 05:53:26;;;;;;;17.90;11.68;;;;;;;;;;5074874;28;20191;-43
2023/07/14 05:55:56;;;;;;;17.40;11.23;;;;;;;;;;5072125;28;20223;-42
2023/07/14 05:58:23;;;;;;;16.88;11.45;;;;;;;;;;5075087;28;20408;-43
2023/07/14 06:00:53;;;;;;;17.10;11.77;;;;;;;;;;5074762;28;20227;-43
2023/07/14 06:03:21;;;;;;;17.50;11.00;;;;;;;;;;5074862;28;20184;-42
2023/07/14 06:05:49;;;;;;;16.55;11.95;;;;;;;;;;5072272;28;20200;-43
2023/07/14 06:08:18;;;;;;;21.17;11.75;;;;;;;;;;5074787;28;20286;-43
2023/07/14 06:10:49;;;;;;;15.98;11.40;;;;;;;;;;5072139;28;20718;-44
2023/07/14 06:13:16;;;;;;;18.35;11.07;;;;;;;;;;5074774;28;20215;-43
2023/07/14 06:15:48;;;;;;;20.88;11.00;;;;;;;;;;5074235;28;20230;-43
2023/07/14 06:18:16;;;;;;;18.15;11.38;;;;;;;;;;5074701;28;20191;-43
2023/07/14 06:20:43;;;;;;;14.88;10.88;;;;;;;;;;5074177;28;21697;-43
2023/07/14 06:23:10;;;;;;;21.27;11.82;;;;;;;;;;5072084;28;20187;-43
2023/07/14 06:25:38;;;;;;;18.48;12.07;;;;;;;;;;5074403;28;20199;-42
2023/07/14 06:28:05;;;;;;;16.23;10.88;;;;;;;;;;5074852;28;20203;-44
2023/07/14 06:30:33;;;;;;;18.13;11.25;;;;;;;;;;5073566;28;20685;-45
2023/07/14 06:33:01;;;;;;;15.50;10.80;;;;;;;;;;5074617;28;20231;-44
2023/07/14 06:35:28;;;;;;;14.02;10.90;;;;;;;;;;5073613;28;20223;-44
2023/07/14 06:37:57;;;;;;;18.58;11.48;;;;;;;;;;5074640;28;20226;-43
2023/07/14 06:40:25;;;;;;;20.05;10.93;;;;;;;;;;5074550;28;20211;-42
2023/07/14 06:42:53;;;;;;;18.88;12.07;;;;;;;;;;5073793;28;20576;-43
2023/07/14 06:45:20;;;;;;;16.73;11.85;;;;;;;;;;5067023;28;20707;-44
2023/07/14 06:47:47;;;;;;;18.33;12.32;;;;;;;;;;5073275;28;20254;-43
2023/07/14 06:50:15;;;;;;;17.73;11.25;;;;;;;;;;5073237;28;20257;-44
2023/07/14 06:52:44;;;;;;;13.40;10.50;;;;;;;;;;5073245;28;20219;-44
2023/07/14 06:55:11;;;;;;;15.52;10.57;;;;;;;;;;5073115;28;20223;-44
2023/07/14 06:57:38;;;;;;;16.55;11.10;;;;;;;;;;5060434;28;20227;-45
2023/07/14 07:00:09;;;;;;;15.02;10.95;;;;;;;;;;5072409;28;20297;-45
2023/07/14 07:02:37;;;;;;;14.07;10.02;;;;;;;;;;5072981;28;20227;-43
2023/07/14 07:05:06;;;;;;;15.38;10.13;;;;;;;;;;5073233;28;20255;-44
2023/07/14 07:07:34;;;;;;;13.55;10.13;;;;;;;;;;5072525;28;20715;-44
2023/07/14 07:10:02;;;;;;;14.85;9.80;;;;;;;;;;5067829;28;20217;-47
2023/07/14 07:12:29;;;;;;;14.50;9.00;;;;;;;;;;5063672;28;20204;-44
2023/07/14 07:14:57;;;;;;;13.30;9.10;;;;;;;;;;5059215;28;20242;-46
2023/07/14 07:17:23;;;;;;;13.45;9.45;;;;;;;;;;5073045;28;20210;-46
2023/07/14 07:19:51;;;;;;;15.07;9.50;;;;;;;;;;5072694;28;20194;-44
2023/07/14 07:22:19;;;;;;;13.93;9.13;;;;;;;;;;5072736;28;20191;-43
2023/07/14 07:24:46;;;;;;;12.02;8.85;;;;;;;;;;5068737;28;20195;-44
2023/07/14 07:27:14;;;;;;;10.93;8.63;;;;;;;;;;5071654;28;20287;-43
2023/07/14 07:29:44;;;;;;;14.50;8.45;;;;;;;;;;5073109;28;20196;-45
2023/07/14 07:32:11;;;;;;;12.90;8.55;;;;;;;;;;5073128;28;20210;-45
2023/07/14 07:34:39;;;;;;;14.48;8.02;;;;;;;;;;5071858;28;20191;-46
2023/07/14 07:37:07;;;;;;;11.27;7.78;;;;;;;;;;5069745;28;20643;-43
2023/07/14 07:39:34;;;;;;;9.48;7.97;;;;;;;;;;5073102;28;20199;-45
2023/07/14 07:42:02;;;;;;;9.50;7.32;;;;;;;;;;5072125;28;20226;-43
2023/07/14 07:44:30;;;;;;;10.52;8.40;;;;;;;;;;5073015;28;20192;-43
2023/07/14 07:46:58;;;;;;;10.95;7.65;;;;;;;;;;5072493;28;20202;-45
2023/07/14 07:49:26;;;;;;;8.85;6.57;;;;;;;;;;5072707;28;20210;-43
2023/07/14 07:51:53;;;;;;;9.95;6.75;;;;;;;;;;5073195;28;20297;-43
2023/07/14 07:54:21;;;;;;;10.57;6.95;;;;;;;;;;5054315;28;20682;-44
2023/07/14 07:56:48;;;;;;;9.10;5.72;;;;;;;;;;5072544;28;20223;-45
2023/07/14 07:59:16;;;;;;;8.18;5.53;;;;;;;;;;5072337;28;20234;-45
2023/07/14 08:01:47;;;;;;;8.52;5.80;;;;;;;;;;5072149;28;20195;-46
2023/07/14 08:04:16;;;;;;;11.23;5.75;;;;;;;;;;5072844;28;20192;-43
2023/07/14 08:06:44;;;;;;;8.18;5.40;;;;;;;;;;5072564;28;20252;-45
2023/07/14 08:09:12;;;;;;;8.07;5.50;;;;;;;;;;5072646;28;20196;-45
2023/07/14 08:11:39;;;;;;;7.80;5.93;;;;;;;;;;5069907;28;20655;-44
2023/07/14 08:14:11;;;;;;;9.60;5.40;;;;;;;;;;5072746;28;20210;-44
2023/07/14 08:16:38;;;;;;;8.57;5.10;;;;;;;;;;5072761;28;20211;-45
2023/07/14 08:19:06;;;;;;;9.45;4.70;;;;;;;;;;5072564;28;20652;-45
2023/07/14 08:21:35;;;;;;;8.73;5.25;;;;;;;;;;5072908;28;20245;-44
2023/07/14 08:24:04;;;;;;;7.95;5.20;;;;;;;;;;5072805;28;20664;-43
2023/07/14 08:26:32;;;;;;;7.05;4.85;;;;;;;;;;5072601;28;20199;-43
2023/07/14 08:29:00;;;;;;;8.10;5.38;;;;;;;;;;5071901;28;20199;-45
2023/07/14 08:31:27;;;;;;;6.50;4.53;;;;;;;;;;5070908;28;20214;-45
2023/07/14 08:33:54;;;;;;;5.22;4.45;;;;;;;;;;5071637;28;20199;-43
2023/07/14 08:36:21;;;;;;;8.27;5.45;;;;;;;;;;5071506;28;20223;-45
2023/07/14 08:38:49;;;;;;;4.88;4.18;;;;;;;;;;5072529;28;20204;-43
2023/07/14 08:41:35;;;;;;;7.68;4.32;;;;;;;;;;5072509;28;20575;-44
2023/07/14 08:44:07;;;;;;;6.13;4.00;;;;;;;;;;5071393;28;20184;-43
2023/07/14 08:46:41;;;;;;;6.53;3.50;;;;;;;;;;5072807;28;20196;-44
2023/07/14 08:49:20;;;;;;;6.93;4.07;;;;;;;;;;5072388;28;20187;-46
2023/07/14 08:51:51;;;;;;;4.45;3.53;;;;;;;;;;5071890;28;20248;-46
2023/07/14 08:54:21;;;;;;;5.15;3.65;;;;;;;;;;5076613;28;20194;-44
2023/07/14 08:56:49;;;;;;;4.43;3.50;;;;;;;;;;5075126;28;20222;-46
2023/07/14 08:59:26;;;;;;;4.20;2.55;;;;;;;;;;5074504;28;20267;-44
2023/07/14 09:01:54;;;;;;;3.42;2.65;;;;;;;;;;5072841;28;20219;-46
2023/07/14 09:04:24;;;;;;;3.58;2.70;;;;;;;;;;5075352;28;20207;-45
2023/07/14 09:06:51;;;;;;;3.85;2.63;;;;;;;;;;5076402;28;20210;-44
2023/07/14 09:09:26;;;;;;;5.13;2.40;;;;;;;;;;5076270;28;20207;-45
2023/07/14 09:12:00;;;;;;;5.95;2.90;;;;;;;;;;5075656;28;20598;-45
2023/07/14 09:14:34;;;;;;;5.95;2.45;;;;;;;;;;5077279;28;20210;-43
2023/07/14 09:17:08;;;;;;;8.48;2.20;;;;;;;;;;5074815;28;20250;-44
2023/07/14 09:20:01;;;;;;;4.22;2.40;;;;;;;;;;5074533;28;20191;-44
2023/07/14 09:22:49;;;;;;;4.50;1.92;;;;;;;;;;5075895;28;20191;-44
2023/07/14 09:26:02;;;;;;;2.97;2.15;;;;;;;;;;5075598;28;20188;-44
2023/07/14 09:28:40;;;;;;;2.05;1.80;;;;;;;;;;5074015;28;20203;-43
2023/07/14 09:31:46;;;;;;;2.03;1.80;;;;;;;;;;5074210;28;20565;-44
2023/07/14 09:34:20;;;;;;;2.85;1.70;;;;;;;;;;5056903;28;20218;-44
2023/07/14 09:36:48;;;;;;;2.83;1.73;;;;;;;;;;5074889;28;20242;-51
2023/07/14 09:39:36;;;;;;;3.35;1.70;;;;;;;;;;5071365;28;20278;-45
2023/07/14 09:42:10;;;;;;;1.77;1.50;;;;;;;;;;5101330;28;20207;-45
2023/07/14 09:44:38;;;;;;;2.33;1.48;;;;;;;;;;5075366;28;20199;-45
2023/07/14 09:47:06;;;;;;;6.07;1.50;;;;;;;;;;5060863;28;20196;-44
2023/07/14 09:49:38;;;;;;;2.08;1.80;;;;;;;;;;5072516;28;20868;-43
2023/07/14 09:52:15;;;;;;;1.95;1.25;;;;;;;;;;5072744;28;20195;-46
2023/07/14 09:54:49;;;;;;;4.13;1.40;;;;;;;;;;5074988;28;20191;-46
2023/07/14 09:57:18;;;;;;;3.08;1.67;;;;;;;;;;5075099;28;20214;-46
2023/07/14 10:00:19;;;;;;;2.60;1.20;;;;;;;;;;5075422;28;20265;-45
2023/07/14 10:02:50;;;;;;;2.17;1.38;;;;;;;;;;5075123;28;20188;-45
2023/07/14 10:05:42;;;;;;;1.70;1.00;;;;;;;;;;5075015;28;20203;-45
2023/07/14 10:08:48;;;;;;;2.25;1.10;;;;;;;;;;5075176;28;20192;-45
2023/07/14 10:11:24;;;;;;;2.95;1.38;;;;;;;;;;5074804;28;20199;-43
2023/07/14 10:14:15;;;;;;;2.17;1.40;;;;;;;;;;5075000;28;20191;-45
2023/07/14 10:16:44;;;;;;;1.35;1.25;;;;;;;;;;5073162;28;20680;-46
2023/07/14 10:19:18;;;;;;;2.00;1.25;;;;;;;;;;5073725;28;20202;-45
2023/07/14 10:22:04;;;;;;;1.27;0.73;;;;;;;;;;5074968;28;20198;-45
2023/07/14 10:24:31;;;;;;;0.80;0.80;;;;;;;;;;5074748;28;20199;-47
2023/07/14 10:27:04;;;;;;;1.67;1.08;;;;;;;;;;5074199;28;20633;-45
2023/07/14 10:29:51;;;;;;;2.25;1.08;;;;;;;;;;5073264;28;20523;-45
2023/07/14 10:32:30;;;;;;;4.40;1.15;;;;;;;;;;5074749;28;20188;-45
2023/07/14 10:35:09;;;;;;;1.33;1.10;;;;;;;;;;5070628;28;20555;-46
2023/07/14 10:37:44;;;;;;;3.45;1.20;;;;;;;;;;5053315;28;20190;-45
2023/07/14 10:40:15;;;;;;;2.60;1.17;;;;;;;;;;5089562;28;20202;-44
2023/07/14 10:43:08;;;;;;;1.90;1.20;;;;;;;;;;5072999;28;20636;-45
2023/07/14 10:45:38;;;;;;;2.35;1.20;;;;;;;;;;5052737;28;20189;-44
2023/07/14 10:48:11;;;;;;;1.17;0.88;;;;;;;;;;5070569;28;20212;-46
2023/07/14 10:50:58;;;;;;;1.90;1.30;;;;;;;;;;5071473;28;20191;-44
2023/07/14 10:53:32;;;;;;;6.85;1.17;;;;;;;;;;5071472;28;20279;-44
2023/07/14 10:56:04;;;;;;;3.65;1.27;;;;;;;;;;5071157;28;20710;-43
2023/07/14 10:58:37;;;;;;;3.15;1.00;;;;;;;;;;5071365;28;20203;-44
2023/07/14 11:01:12;;;;;;;1.25;0.90;;;;;;;;;;5073410;28;20231;-43
2023/07/14 11:03:47;;;;;;;3.70;1.08;;;;;;;;;;5073374;28;20198;-43
2023/07/14 11:06:18;;;;;;;1.45;0.93;;;;;;;;;;5073787;28;20222;-43
2023/07/14 11:08:55;;;;;;;1.90;1.10;;;;;;;;;;5072211;28;20655;-45
2023/07/14 11:11:39;;;;;;;1.10;0.90;;;;;;;;;;5071425;28;20195;-45
2023/07/14 11:14:12;;;;;;;1.25;0.82;;;;;;;;;;5068734;28;20645;-45
2023/07/14 11:16:52;;;;;;;3.92;1.00;;;;;;;;;;5073644;28;20571;-45
2023/07/14 11:19:29;;;;;;;1.45;0.70;;;;;;;;;;5069262;28;20655;-44
2023/07/14 11:22:25;;;;;;;2.17;1.00;;;;;;;;;;5071119;28;20573;-44
2023/07/14 11:25:12;;;;;;;3.17;0.82;;;;;;;;;;5051871;28;20183;-45
2023/07/14 11:27:47;;;;;;;2.25;1.13;;;;;;;;;;5065823;28;20187;-45
2023/07/14 11:30:19;;;;;;;12.52;1.20;;;;;;;;;;5072404;28;20595;-46
2023/07/14 11:32:56;;;;;;;2.30;0.70;;;;;;;;;;5073392;28;20192;-45
2023/07/14 11:35:48;;;;;;;1.20;0.70;;;;;;;;;;5072653;28;20191;-45
2023/07/14 11:38:46;;;;;;;0.85;0.77;;;;;;;;;;5072939;28;20637;-44
2023/07/14 11:41:15;;;;;;;3.33;1.00;;;;;;;;;;5073422;28;20191;-45
2023/07/14 11:43:43;;;;;;;1.23;0.88;;;;;;;;;;5072133;28;20191;-45
2023/07/14 11:46:15;;;;;;;3.55;0.90;;;;;;;;;;5072293;28;20211;-46
2023/07/14 11:48:59;;;;;;;0.70;0.60;;;;;;;;;;5072622;28;20194;-44
2023/07/14 11:52:00;;;;;;;2.05;0.90;;;;;;;;;;5073047;28;20187;-45
2023/07/14 11:55:02;;;;;;;1.40;0.70;;;;;;;;;;5034335;28;20696;-44
2023/07/14 11:57:30;;;;;;;0.70;0.60;;;;;;;;;;5049752;28;20236;-44
2023/07/14 12:00:18;;;;;;;3.22;0.80;;;;;;;;;;5050282;28;20228;-43
2023/07/14 12:02:48;;;;;;;1.33;0.70;;;;;;;;;;5050684;28;20271;-45
2023/07/14 12:05:34;;;;;;;3.92;1.02;;;;;;;;;;5050759;28;20215;-45
2023/07/14 12:08:04;;;;;;;1.08;0.75;;;;;;;;;;5049420;28;20187;-44
2023/07/14 12:10:43;;;;;;;0.90;0.73;;;;;;;;;;5050251;28;20202;-45
2023/07/14 12:13:37;;;;;;;1.92;1.00;;;;;;;;;;5050654;28;20195;-44
2023/07/14 12:16:13;;;;;;;1.27;0.65;;;;;;;;;;5043582;28;20707;-44
2023/07/14 12:19:00;;;;;;;1.45;0.80;;;;;;;;;;5050561;28;20227;-45
2023/07/14 12:21:27;;;;;;;1.95;1.05;;;;;;;;;;5049368;28;20196;-46
2023/07/14 12:24:02;;;;;;;2.50;0.82;;;;;;;;;;5050726;28;20215;-45
2023/07/14 12:26:51;;;;;;;1.27;1.02;;;;;;;;;;5051415;28;20188;-45
2023/07/14 12:29:20;;;;;;;3.38;1.00;;;;;;;;;;5053612;28;21810;-45
2023/07/14 12:31:53;;;;;;;4.97;0.90;;;;;;;;;;5058310;28;20357;-45
2023/07/14 12:34:23;;;;;;;2.25;0.95;;;;;;;;;;5071653;28;20215;-45
2023/07/14 12:36:51;;;;;;;1.58;0.73;;;;;;;;;;5075584;28;20231;-46
2023/07/14 12:39:18;;;;;;;1.35;0.80;;;;;;;;;;5063004;28;20700;-45
2023/07/14 12:41:49;;;;;;;1.00;0.55;;;;;;;;;;5074495;28;20237;-44
2023/07/14 12:44:21;;;;;;;1.55;1.02;;;;;;;;;;5075101;28;20251;-45
2023/07/14 12:46:50;;;;;;;2.08;0.80;;;;;;;;;;5057083;28;20235;-45
2023/07/14 12:49:45;;;;;;;1.13;0.80;;;;;;;;;;5075630;28;20767;-45
2023/07/14 12:52:17;;;;;;;0.95;0.60;;;;;;;;;;5074145;28;20220;-45
2023/07/14 12:54:46;;;;;;;2.38;0.55;;;;;;;;;;5075574;28;20337;-45
2023/07/14 12:57:16;;;;;;;6.60;0.90;;;;;;;;;;5075343;28;20250;-45
2023/07/14 12:59:50;;;;;;;0.90;0.75;;;;;;;;;;5074690;28;20236;-45
2023/07/14 13:02:18;;;;;;;3.00;1.00;;;;;;;;;;5075092;28;20744;-45
2023/07/14 13:04:45;;;;;;;2.72;0.80;;;;;;;;;;5075457;28;20243;-45
2023/07/14 13:07:19;;;;;;;1.63;0.90;;;;;;;;;;5075326;28;20230;-44
2023/07/14 13:09:58;;;;;;;1.42;0.90;;;;;;;;;;5075392;28;20230;-45
2023/07/14 13:12:25;;;;;;;1.38;0.90;;;;;;;;;;5073501;28;20276;-45
2023/07/14 13:14:54;;;;;;;2.25;0.80;;;;;;;;;;5074878;28;20222;-45
2023/07/14 13:17:24;;;;;;;3.67;0.82;;;;;;;;;;5073741;28;20235;-44
2023/07/14 13:19:51;;;;;;;1.40;0.90;;;;;;;;;;5073557;28;20637;-46
2023/07/14 13:22:22;;;;;;;1.50;0.82;;;;;;;;;;5074387;28;20219;-45
2023/07/14 13:25:05;;;;;;;2.15;0.68;;;;;;;;;;5075458;28;20250;-44
2023/07/14 13:27:37;;;;;;;1.08;0.65;;;;;;;;;;5074610;28;20238;-45
2023/07/14 13:30:29;;;;;;;1.83;0.85;;;;;;;;;;5071755;28;20683;-45
2023/07/14 13:32:57;;;;;;;1.50;1.00;;;;;;;;;;5073604;28;20215;-44
2023/07/14 13:35:26;;;;;;;1.48;0.80;;;;;;;;;;5072188;28;20711;-47
2023/07/14 13:38:03;;;;;;;1.65;1.00;;;;;;;;;;5073974;28;20231;-44
2023/07/14 13:40:39;;;;;;;1.08;0.75;;;;;;;;;;5073322;28;20223;-44
2023/07/14 13:43:20;;;;;;;2.20;1.00;;;;;;;;;;5074705;28;20231;-44
2023/07/14 13:46:12;;;;;;;1.13;0.90;;;;;;;;;;5060204;28;20342;-45
2023/07/14 13:48:42;;;;;;;3.40;0.85;;;;;;;;;;5073706;28;20241;-44
2023/07/14 13:51:17;;;;;;;2.50;0.80;;;;;;;;;;5071645;28;20219;-45
2023/07/14 13:53:45;;;;;;;2.97;1.23;;;;;;;;;;5074649;28;20222;-44
2023/07/14 13:56:21;;;;;;;1.92;0.80;;;;;;;;;;5073820;28;20246;-45
2023/07/14 13:58:49;;;;;;;1.85;1.00;;;;;;;;;;5073622;28;20219;-45
2023/07/14 14:01:21;;;;;;;1.60;0.90;;;;;;;;;;5073225;28;20239;-43
2023/07/14 14:03:51;;;;;;;1.00;0.80;;;;;;;;;;5073372;28;20228;-43
2023/07/14 14:06:20;;;;;;;2.72;0.60;;;;;;;;;;5072447;28;20231;-44
2023/07/14 14:08:47;;;;;;;1.77;0.80;;;;;;;;;;5073438;28;21452;-44
2023/07/14 14:11:14;;;;;;;3.45;0.70;;;;;;;;;;5069310;28;20218;-43
2023/07/14 14:13:42;;;;;;;2.58;1.08;;;;;;;;;;5073324;28;20539;-45
2023/07/14 14:16:13;;;;;;;3.28;0.75;;;;;;;;;;5073438;28;20299;-43
2023/07/14 14:18:41;;;;;;;2.17;1.05;;;;;;;;;;5072967;28;20227;-43
2023/07/14 14:21:09;;;;;;;1.20;0.75;;;;;;;;;;5071837;28;20249;-42
2023/07/14 14:23:36;;;;;;;1.23;0.85;;;;;;;;;;5061826;28;20692;-44
2023/07/14 14:26:03;;;;;;;1.23;0.90;;;;;;;;;;5061908;28;20265;-43
2023/07/14 14:28:30;;;;;;;3.08;0.73;;;;;;;;;;5072333;28;20368;-46
2023/07/14 14:30:57;;;;;;;2.00;0.95;;;;;;;;;;5073691;28;20224;-44
2023/07/14 14:33:30;;;;;;;3.97;0.80;;;;;;;;;;5073755;28;20219;-45
2023/07/14 14:35:57;;;;;;;3.20;0.90;;;;;;;;;;5074110;28;20223;-45
2023/07/14 14:38:30;;;;;;;2.72;1.20;;;;;;;;;;5073522;28;20239;-45
2023/07/14 14:41:29;;;;;;;2.33;0.80;;;;;;;;;;5072866;28;20257;-44
2023/07/14 14:43:57;;;;;;;2.25;0.90;;;;;;;;;;5072128;28;20233;-45
2023/07/14 14:46:25;;;;;;;1.20;0.80;;;;;;;;;;5073026;28;20226;-45
2023/07/14 14:48:53;;;;;;;0.85;0.63;;;;;;;;;;5073313;28;20711;-45
2023/07/14 14:51:20;;;;;;;1.13;0.80;;;;;;;;;;5072188;28;20269;-44
2023/07/14 14:53:48;;;;;;;1.85;0.75;;;;;;;;;;5073063;28;20265;-44
2023/07/14 14:56:29;;;;;;;1.00;0.68;;;;;;;;;;5073688;28;20223;-45
2023/07/14 14:59:18;;;;;;;1.58;0.88;;;;;;;;;;5068765;28;20231;-45
2023/07/14 15:01:46;;;;;;;1.05;0.80;;;;;;;;;;5071765;28;20246;-44